createdAt,value
2019-03-30T00:00:57.223Z,23.90
2019-03-30T00:01:57.234Z,26.20
2019-03-30T00:02:57.249Z,24.00
2019-03-30T00:03:57.265Z,25.70
2019-03-30T00:04:57.277Z,25.10
2019-03-30T00:05:57.289Z,24.80
2019-03-30T00:06:57.307Z,25.40
2019-03-30T00:07:57.332Z,25.90
2019-03-30T00:08:57.325Z,25.60
2019-03-30T00:09:57.344Z,26.30
2019-03-30T00:10:57.354Z,25.60
2019-03-30T00:11:58.004Z,24.10
2019-03-30T00:12:57.395Z,25.80
2019-03-30T00:13:57.395Z,25.10
2019-03-30T00:14:57.414Z,25.00
2019-03-30T00:15:57.422Z,25.70
2019-03-30T00:16:57.437Z,25.90
2019-03-30T00:17:57.456Z,25.30
2019-03-30T00:18:57.463Z,25.70
2019-03-30T00:19:57.483Z,24.80
2019-03-30T00:20:57.496Z,25.40
2019-03-30T00:21:57.512Z,25.20
2019-03-30T00:22:57.522Z,25.50
2019-03-30T00:23:57.537Z,24.60
2019-03-30T00:24:57.550Z,25.70
2019-03-30T00:25:57.563Z,24.60
2019-03-30T00:26:57.574Z,25.40
2019-03-30T00:27:57.585Z,25.30
2019-03-30T00:28:57.600Z,24.70
2019-03-30T00:29:57.611Z,25.40
2019-03-30T00:30:57.631Z,25.60
2019-03-30T00:31:57.646Z,25.80
2019-03-30T00:32:57.656Z,25.20
2019-03-30T00:33:57.666Z,25.40
2019-03-30T00:34:57.683Z,24.40
2019-03-30T00:35:57.712Z,24.50
2019-03-30T00:36:57.706Z,24.00
2019-03-30T00:37:57.726Z,25.50
2019-03-30T00:38:57.734Z,24.70
2019-03-30T00:39:57.749Z,24.50
2019-03-30T00:40:57.762Z,25.00
2019-03-30T00:41:57.785Z,24.40
2019-03-30T00:42:57.793Z,24.40
2019-03-30T00:43:57.801Z,24.20
2019-03-30T00:44:57.818Z,24.30
2019-03-30T00:45:57.829Z,24.20
2019-03-30T00:46:57.844Z,24.10
2019-03-30T00:47:57.857Z,24.30
2019-03-30T00:48:57.869Z,23.80
2019-03-30T00:49:57.901Z,25.10
2019-03-30T00:50:57.905Z,23.50
2019-03-30T00:51:57.920Z,24.10
2019-03-30T00:52:57.943Z,25.10
2019-03-30T00:53:57.945Z,25.50
2019-03-30T00:54:57.953Z,25.60
2019-03-30T00:55:57.970Z,25.10
2019-03-30T00:56:57.988Z,24.90
2019-03-30T00:57:57.996Z,25.20
2019-03-30T00:58:58.011Z,24.10
2019-03-30T00:59:58.027Z,23.90
2019-03-30T01:00:58.048Z,24.50
2019-03-30T01:01:58.047Z,24.80
2019-03-30T01:02:58.065Z,24.90
2019-03-30T01:03:58.070Z,24.80
2019-03-30T01:04:58.090Z,24.40
2019-03-30T01:05:58.326Z,25.50
2019-03-30T01:06:58.130Z,24.70
2019-03-30T01:07:58.140Z,24.40
2019-03-30T01:08:58.139Z,25.30
2019-03-30T01:09:58.176Z,25.60
2019-03-30T01:10:58.164Z,24.30
2019-03-30T01:11:58.183Z,26.10
2019-03-30T01:12:58.189Z,24.80
2019-03-30T01:13:58.216Z,25.00
2019-03-30T01:14:58.223Z,25.20
2019-03-30T01:15:58.233Z,25.50
2019-03-30T01:16:58.252Z,26.30
2019-03-30T01:17:58.264Z,24.50
2019-03-30T01:18:58.285Z,25.90
2019-03-30T01:20:03.144Z,25.50
2019-03-30T01:20:58.300Z,25.30
2019-03-30T01:21:58.323Z,25.30
2019-03-30T01:22:58.350Z,25.30
2019-03-30T01:23:58.352Z,25.30
2019-03-30T01:24:58.360Z,25.10
2019-03-30T01:25:58.361Z,25.00
2019-03-30T01:26:58.373Z,24.50
2019-03-30T01:27:58.385Z,24.40
2019-03-30T01:28:58.404Z,24.90
2019-03-30T01:29:58.414Z,24.00
2019-03-30T01:30:58.426Z,25.00
2019-03-30T01:31:58.451Z,24.50
2019-03-30T01:32:58.461Z,25.00
2019-03-30T01:33:58.472Z,24.70
2019-03-30T01:34:58.513Z,25.30
2019-03-30T01:35:58.490Z,25.90
2019-03-30T01:36:58.510Z,25.00
2019-03-30T01:37:58.520Z,24.90
2019-03-30T01:38:58.536Z,25.60
2019-03-30T01:39:58.553Z,24.80
2019-03-30T01:40:58.559Z,24.00
2019-03-30T01:41:58.572Z,25.20
2019-03-30T01:42:58.581Z,25.40
2019-03-30T01:43:58.596Z,25.10
2019-03-30T01:44:58.611Z,24.80
2019-03-30T01:45:58.626Z,25.20
2019-03-30T01:46:58.641Z,24.60
2019-03-30T01:47:58.656Z,24.50
2019-03-30T01:48:58.663Z,24.70
2019-03-30T01:49:58.679Z,24.00
2019-03-30T01:50:58.691Z,23.90
2019-03-30T01:51:58.701Z,24.50
2019-03-30T01:52:58.719Z,24.30
2019-03-30T01:53:58.737Z,24.30
2019-03-30T01:54:58.745Z,24.60
2019-03-30T01:55:58.770Z,23.90
2019-03-30T01:56:58.781Z,25.50
2019-03-30T01:57:58.786Z,25.60
2019-03-30T01:58:58.797Z,26.50
2019-03-30T01:59:58.801Z,25.90
2019-03-30T02:00:58.821Z,25.50
2019-03-30T02:01:58.850Z,25.90
2019-03-30T02:02:58.841Z,25.50
2019-03-30T02:03:58.853Z,26.40
2019-03-30T02:04:58.869Z,26.10
2019-03-30T02:05:58.876Z,26.10
2019-03-30T02:06:58.888Z,25.40
2019-03-30T02:07:58.905Z,24.80
2019-03-30T02:08:58.917Z,23.60
2019-03-30T02:09:58.926Z,24.90
2019-03-30T02:10:58.938Z,23.70
2019-03-30T02:11:58.950Z,23.70
2019-03-30T02:12:58.962Z,22.40
2019-03-30T02:13:58.988Z,23.10
2019-03-30T02:14:58.995Z,23.00
2019-03-30T02:15:58.997Z,22.90
2019-03-30T02:16:59.014Z,23.00
2019-03-30T02:17:59.024Z,23.50
2019-03-30T02:18:59.035Z,23.20
2019-03-30T02:19:59.047Z,22.90
2019-03-30T02:20:59.062Z,22.60
2019-03-30T02:21:59.076Z,22.40
2019-03-30T02:22:59.091Z,22.80
2019-03-30T02:23:59.093Z,22.40
2019-03-30T02:24:59.118Z,23.10
2019-03-30T02:25:59.120Z,23.10
2019-03-30T02:26:59.128Z,22.50
2019-03-30T02:27:59.154Z,23.20
2019-03-30T02:28:59.167Z,23.40
2019-03-30T02:29:59.169Z,23.00
2019-03-30T02:30:59.177Z,23.10
2019-03-30T02:31:59.198Z,23.70
2019-03-30T02:32:59.210Z,23.30
2019-03-30T02:33:59.217Z,22.40
2019-03-30T02:34:59.228Z,23.10
2019-03-30T02:35:59.242Z,24.50
2019-03-30T02:36:59.265Z,23.50
2019-03-30T02:37:59.263Z,24.20
2019-03-30T02:38:59.273Z,24.40
2019-03-30T02:39:59.304Z,24.00
2019-03-30T02:40:59.328Z,24.50
2019-03-30T02:41:59.312Z,24.70
2019-03-30T02:42:59.331Z,24.50
2019-03-30T02:43:59.337Z,24.10
2019-03-30T02:44:59.344Z,23.20
2019-03-30T02:45:59.356Z,24.90
2019-03-30T02:46:59.366Z,24.90
2019-03-30T02:47:59.384Z,23.70
2019-03-30T02:48:59.401Z,25.40
2019-03-30T02:49:59.407Z,25.10
2019-03-30T02:50:59.414Z,26.20
2019-03-30T02:51:59.430Z,26.90
2019-03-30T02:52:59.442Z,25.20
2019-03-30T02:53:59.454Z,25.40
2019-03-30T02:54:59.467Z,26.40
2019-03-30T02:55:59.529Z,27.00
2019-03-30T02:56:59.489Z,27.10
2019-03-30T02:57:59.504Z,26.20
2019-03-30T02:58:59.512Z,26.70
2019-03-30T02:59:59.546Z,25.90
2019-03-30T03:00:59.535Z,25.30
2019-03-30T03:01:59.544Z,26.30
2019-03-30T03:02:59.590Z,24.50
2019-03-30T03:03:59.566Z,25.10
2019-03-30T03:04:59.597Z,24.50
2019-03-30T03:05:59.602Z,26.90
2019-03-30T03:06:59.602Z,25.40
2019-03-30T03:07:59.619Z,25.10
2019-03-30T03:08:59.637Z,25.00
2019-03-30T03:09:59.638Z,24.70
2019-03-30T03:10:59.652Z,24.40
2019-03-30T03:11:59.704Z,24.50
2019-03-30T03:12:59.672Z,25.30
2019-03-30T03:13:59.685Z,25.70
2019-03-30T03:14:59.696Z,25.10
2019-03-30T03:15:59.706Z,25.40
2019-03-30T03:16:59.793Z,24.40
2019-03-30T03:17:59.730Z,24.30
2019-03-30T03:18:59.741Z,24.20
2019-03-30T03:19:59.755Z,25.20
2019-03-30T03:21:07.338Z,25.20
2019-03-30T03:21:59.779Z,23.80
2019-03-30T03:22:59.801Z,24.50
2019-03-30T03:23:59.817Z,24.40
2019-03-30T03:24:59.814Z,24.20
2019-03-30T03:25:59.834Z,23.80
2019-03-30T03:26:59.831Z,23.60
2019-03-30T03:27:59.889Z,23.90
2019-03-30T03:28:59.874Z,22.90
2019-03-30T03:29:59.874Z,23.40
2019-03-30T03:30:59.884Z,23.30
2019-03-30T03:31:59.903Z,22.60
2019-03-30T03:32:59.920Z,23.40
2019-03-30T03:33:59.923Z,23.40
2019-03-30T03:34:59.924Z,24.30
2019-03-30T03:35:59.939Z,23.20
2019-03-30T03:36:59.948Z,23.20
2019-03-30T03:37:59.964Z,23.30
2019-03-30T03:38:59.974Z,23.60
2019-03-30T03:39:59.990Z,22.40
2019-03-30T03:40:59.997Z,23.50
2019-03-30T03:42:00.009Z,23.80
2019-03-30T03:43:00.025Z,22.40
2019-03-30T03:44:00.031Z,22.40
2019-03-30T03:45:00.042Z,22.30
2019-03-30T03:46:00.056Z,22.30
2019-03-30T03:47:00.070Z,22.80
2019-03-30T03:48:00.074Z,20.90
2019-03-30T03:49:00.085Z,21.90
2019-03-30T03:50:00.241Z,21.50
2019-03-30T03:51:00.116Z,22.50
2019-03-30T03:52:00.123Z,21.90
2019-03-30T03:53:00.132Z,22.20
2019-03-30T03:54:00.185Z,21.80
2019-03-30T03:55:00.569Z,22.00
2019-03-30T03:56:00.167Z,22.10
2019-03-30T03:57:00.187Z,21.20
2019-03-30T03:58:00.192Z,21.60
2019-03-30T03:59:00.196Z,20.90
2019-03-30T04:00:00.579Z,20.10
2019-03-30T04:01:00.230Z,21.60
2019-03-30T04:02:00.240Z,21.40
2019-03-30T04:03:00.255Z,20.70
2019-03-30T04:04:00.258Z,22.10
2019-03-30T04:05:00.503Z,20.60
2019-03-30T04:06:00.283Z,20.50
2019-03-30T04:07:00.294Z,20.60
2019-03-30T04:08:00.306Z,21.20
2019-03-30T04:09:00.313Z,20.50
2019-03-30T04:10:00.565Z,20.50
2019-03-30T04:11:00.338Z,19.80
2019-03-30T04:12:00.354Z,20.20
2019-03-30T04:13:00.361Z,20.30
2019-03-30T04:14:00.367Z,20.10
2019-03-30T04:15:00.529Z,19.10
2019-03-30T04:16:00.399Z,20.30
2019-03-30T04:17:00.401Z,19.70
2019-03-30T04:18:00.415Z,18.70
2019-03-30T04:19:00.433Z,20.40
2019-03-30T04:20:00.665Z,19.20
2019-03-30T04:21:00.448Z,18.70
2019-03-30T04:22:00.465Z,18.70
2019-03-30T04:23:00.469Z,18.30
2019-03-30T04:24:00.500Z,19.00
2019-03-30T04:25:00.563Z,18.50
2019-03-30T04:26:00.512Z,18.70
2019-03-30T04:27:00.529Z,18.30
2019-03-30T04:28:00.530Z,20.30
2019-03-30T04:29:00.546Z,18.30
2019-03-30T04:30:00.660Z,19.00
2019-03-30T04:31:00.566Z,19.40
2019-03-30T04:32:00.579Z,18.60
2019-03-30T04:33:00.584Z,18.90
2019-03-30T04:34:00.604Z,18.40
2019-03-30T04:35:00.608Z,18.30
2019-03-30T04:36:00.621Z,17.60
2019-03-30T04:37:00.631Z,17.50
2019-03-30T04:38:00.637Z,18.70
2019-03-30T04:39:00.653Z,17.90
2019-03-30T04:40:00.668Z,18.10
2019-03-30T04:41:00.690Z,17.80
2019-03-30T04:42:00.717Z,17.20
2019-03-30T04:43:00.702Z,17.10
2019-03-30T04:44:00.711Z,17.30
2019-03-30T04:45:00.726Z,17.20
2019-03-30T04:46:00.734Z,17.00
2019-03-30T04:47:00.760Z,17.20
2019-03-30T04:48:00.860Z,16.50
2019-03-30T04:49:00.771Z,17.10
2019-03-30T04:50:00.785Z,16.70
2019-03-30T04:51:00.785Z,16.80
2019-03-30T04:52:00.798Z,16.60
2019-03-30T04:53:00.819Z,16.20
2019-03-30T04:54:00.829Z,16.50
2019-03-30T04:55:00.830Z,16.50
2019-03-30T04:56:00.841Z,17.00
2019-03-30T04:57:00.858Z,16.80
2019-03-30T04:58:00.873Z,16.90
2019-03-30T04:59:00.875Z,16.30
2019-03-30T05:00:00.891Z,16.90
2019-03-30T05:01:00.901Z,16.00
2019-03-30T05:02:00.913Z,16.30
2019-03-30T05:03:00.928Z,16.50
2019-03-30T05:04:00.938Z,16.50
2019-03-30T05:05:00.945Z,15.60
2019-03-30T05:06:00.961Z,16.10
2019-03-30T05:07:00.971Z,16.30
2019-03-30T05:08:00.982Z,16.60
2019-03-30T05:09:00.993Z,16.50
2019-03-30T05:10:01.001Z,16.90
2019-03-30T05:11:01.019Z,16.20
2019-03-30T05:12:01.027Z,16.00
2019-03-30T05:13:01.037Z,15.20
2019-03-30T05:14:01.066Z,15.80
2019-03-30T05:15:01.061Z,15.90
2019-03-30T05:16:01.072Z,15.40
2019-03-30T05:17:01.083Z,15.20
2019-03-30T05:18:01.102Z,15.00
2019-03-30T05:19:01.106Z,16.00
2019-03-30T05:20:01.128Z,15.40
2019-03-30T05:21:01.124Z,15.60
2019-03-30T05:22:12.127Z,15.10
2019-03-30T05:23:01.146Z,15.60
2019-03-30T05:24:01.153Z,15.80
2019-03-30T05:25:01.164Z,15.70
2019-03-30T05:26:01.178Z,15.60
2019-03-30T05:27:01.187Z,15.20
2019-03-30T05:28:01.204Z,15.50
2019-03-30T05:29:01.212Z,15.60
2019-03-30T05:30:01.232Z,15.70
2019-03-30T05:31:01.228Z,16.10
2019-03-30T05:32:01.241Z,14.60
2019-03-30T05:33:05.834Z,14.90
2019-03-30T05:34:01.267Z,16.30
2019-03-30T05:35:01.278Z,16.30
2019-03-30T05:36:01.374Z,16.00
2019-03-30T05:37:01.297Z,16.40
2019-03-30T05:38:01.647Z,16.00
2019-03-30T05:39:01.319Z,15.20
2019-03-30T05:40:01.330Z,15.90
2019-03-30T05:41:01.344Z,15.50
2019-03-30T05:42:01.359Z,14.80
2019-03-30T05:43:01.368Z,15.40
2019-03-30T05:44:01.377Z,15.00
2019-03-30T05:45:01.388Z,16.30
2019-03-30T05:46:01.409Z,15.10
2019-03-30T05:47:01.428Z,14.60
2019-03-30T05:48:01.430Z,15.70
2019-03-30T05:49:01.430Z,15.70
2019-03-30T05:50:01.456Z,15.10
2019-03-30T05:51:01.460Z,16.20
2019-03-30T05:52:01.467Z,14.60
2019-03-30T05:53:01.482Z,14.70
2019-03-30T05:54:01.490Z,15.40
2019-03-30T05:55:01.504Z,15.50
2019-03-30T05:56:01.528Z,15.00
2019-03-30T05:57:01.519Z,14.60
2019-03-30T05:58:01.535Z,14.80
2019-03-30T05:59:01.543Z,15.50
2019-03-30T06:00:01.557Z,15.10
2019-03-30T06:01:01.576Z,15.30
2019-03-30T06:02:01.583Z,15.20
2019-03-30T06:03:01.585Z,14.60
2019-03-30T06:04:01.600Z,14.70
2019-03-30T06:05:03.746Z,14.50
2019-03-30T06:06:01.631Z,14.90
2019-03-30T06:07:01.643Z,14.80
2019-03-30T06:08:01.643Z,14.70
2019-03-30T06:09:01.662Z,14.20
2019-03-30T06:10:01.674Z,14.90
2019-03-30T06:11:01.682Z,14.00
2019-03-30T06:12:01.690Z,14.70
2019-03-30T06:13:01.697Z,14.00
2019-03-30T06:14:01.711Z,13.70
2019-03-30T06:15:01.731Z,13.70
2019-03-30T06:16:01.733Z,13.60
2019-03-30T06:17:01.753Z,13.40
2019-03-30T06:18:01.765Z,13.50
2019-03-30T06:19:01.765Z,13.60
2019-03-30T06:20:01.778Z,13.00
2019-03-30T06:21:01.792Z,13.80
2019-03-30T06:22:01.805Z,13.20
2019-03-30T06:23:01.813Z,13.60
2019-03-30T06:24:01.823Z,13.70
2019-03-30T06:25:01.835Z,13.00
2019-03-30T06:26:01.843Z,13.40
2019-03-30T06:27:01.859Z,13.10
2019-03-30T06:28:01.868Z,13.40
2019-03-30T06:29:01.882Z,12.80
2019-03-30T06:30:01.900Z,12.40
2019-03-30T06:31:01.913Z,13.20
2019-03-30T06:32:01.911Z,12.60
2019-03-30T06:33:01.930Z,13.20
2019-03-30T06:34:01.941Z,13.30
2019-03-30T06:35:01.949Z,12.70
2019-03-30T06:36:02.032Z,12.90
2019-03-30T06:37:01.970Z,19.20
2019-03-30T06:38:01.982Z,18.80
2019-03-30T06:39:01.991Z,14.30
2019-03-30T06:40:02.008Z,13.40
2019-03-30T06:41:02.022Z,12.20
2019-03-30T06:42:02.037Z,12.70
2019-03-30T06:43:02.038Z,12.80
2019-03-30T06:44:02.047Z,12.40
2019-03-30T06:45:02.059Z,12.70
2019-03-30T06:46:02.077Z,12.90
2019-03-30T06:47:02.091Z,13.40
2019-03-30T06:48:02.097Z,12.40
2019-03-30T06:49:02.210Z,12.60
2019-03-30T06:50:02.124Z,13.30
2019-03-30T06:51:02.132Z,11.90
2019-03-30T06:52:02.146Z,12.80
2019-03-30T06:53:02.161Z,12.60
2019-03-30T06:54:02.167Z,12.70
2019-03-30T06:55:02.178Z,12.10
2019-03-30T06:56:02.198Z,12.10
2019-03-30T06:57:02.207Z,12.20
2019-03-30T06:58:02.214Z,12.40
2019-03-30T06:59:02.225Z,11.80
2019-03-30T07:00:02.236Z,11.30
2019-03-30T07:01:02.258Z,11.70
2019-03-30T07:02:02.263Z,11.70
2019-03-30T07:03:02.281Z,11.20
2019-03-30T07:04:02.365Z,10.60
2019-03-30T07:05:02.293Z,11.20
2019-03-30T07:06:02.315Z,10.80
2019-03-30T07:07:02.322Z,11.40
2019-03-30T07:08:02.329Z,12.30
2019-03-30T07:09:02.340Z,11.00
2019-03-30T07:10:02.359Z,11.00
2019-03-30T07:11:02.373Z,10.90
2019-03-30T07:12:02.389Z,11.20
2019-03-30T07:13:02.393Z,10.90
2019-03-30T07:14:02.407Z,10.60
2019-03-30T07:15:02.415Z,11.20
2019-03-30T07:16:02.424Z,11.20
2019-03-30T07:17:02.433Z,10.90
2019-03-30T07:18:02.462Z,10.30
2019-03-30T07:19:02.461Z,11.30
2019-03-30T07:20:02.483Z,10.70
2019-03-30T07:21:02.520Z,10.90
2019-03-30T07:22:02.505Z,11.40
2019-03-30T07:23:11.769Z,10.60
2019-03-30T07:24:02.530Z,10.80
2019-03-30T07:25:02.553Z,10.60
2019-03-30T07:26:02.544Z,11.00
2019-03-30T07:27:02.565Z,12.40
2019-03-30T07:28:02.573Z,10.30
2019-03-30T07:29:02.595Z,10.70
2019-03-30T07:30:02.643Z,12.10
2019-03-30T07:31:02.603Z,11.20
2019-03-30T07:32:02.614Z,10.30
2019-03-30T07:33:02.626Z,9.70
2019-03-30T07:34:02.644Z,10.40
2019-03-30T07:35:02.652Z,10.40
2019-03-30T07:36:02.665Z,10.60
2019-03-30T07:37:02.688Z,10.50
2019-03-30T07:38:02.689Z,10.80
2019-03-30T07:39:02.701Z,10.60
2019-03-30T07:40:02.716Z,11.00
2019-03-30T07:41:02.724Z,10.50
2019-03-30T07:42:02.752Z,10.70
2019-03-30T07:43:02.756Z,10.50
2019-03-30T07:44:02.760Z,10.30
2019-03-30T07:45:02.782Z,10.70
2019-03-30T07:46:02.787Z,10.30
2019-03-30T07:47:02.792Z,10.80
2019-03-30T07:48:02.831Z,11.10
2019-03-30T07:49:02.827Z,10.10
2019-03-30T07:50:02.833Z,10.70
2019-03-30T07:51:02.845Z,10.60
2019-03-30T07:52:02.861Z,10.40
2019-03-30T07:53:02.870Z,11.00
2019-03-30T07:54:02.887Z,10.90
2019-03-30T07:55:02.897Z,10.20
2019-03-30T07:56:08.699Z,10.50
2019-03-30T07:57:05.540Z,10.90
2019-03-30T07:58:03.041Z,10.20
2019-03-30T07:59:02.949Z,11.40
2019-03-30T08:00:02.956Z,10.60
2019-03-30T08:01:02.971Z,10.90
2019-03-30T08:02:03.001Z,10.90
2019-03-30T08:03:02.996Z,11.20
2019-03-30T08:04:03.004Z,11.00
2019-03-30T08:05:03.020Z,11.40
2019-03-30T08:06:03.037Z,11.10
2019-03-30T08:07:03.052Z,11.30
2019-03-30T08:08:03.080Z,11.20
2019-03-30T08:09:03.108Z,10.70
2019-03-30T08:10:03.092Z,10.60
2019-03-30T08:11:03.095Z,11.30
2019-03-30T08:12:03.105Z,11.40
2019-03-30T08:13:03.119Z,10.90
2019-03-30T08:14:03.140Z,11.40
2019-03-30T08:15:03.146Z,10.80
2019-03-30T08:16:03.255Z,11.10
2019-03-30T08:17:03.171Z,11.00
2019-03-30T08:18:03.184Z,10.80
2019-03-30T08:19:03.200Z,11.30
2019-03-30T08:20:03.206Z,10.80
2019-03-30T08:21:03.222Z,10.70
2019-03-30T08:22:03.236Z,11.00
2019-03-30T08:23:03.256Z,10.70
2019-03-30T08:24:03.279Z,11.20
2019-03-30T08:25:03.278Z,10.50
2019-03-30T08:26:03.291Z,11.40
2019-03-30T08:27:03.300Z,11.90
2019-03-30T08:28:03.318Z,10.80
2019-03-30T08:29:03.337Z,11.60
2019-03-30T08:30:03.336Z,11.30
2019-03-30T08:31:03.346Z,11.30
2019-03-30T08:32:03.364Z,11.10
2019-03-30T08:33:03.374Z,11.10
2019-03-30T08:34:03.391Z,11.40
2019-03-30T08:35:03.415Z,11.30
2019-03-30T08:36:03.410Z,10.90
2019-03-30T08:37:03.434Z,11.40
2019-03-30T08:38:03.460Z,11.10
2019-03-30T08:39:03.455Z,11.90
2019-03-30T08:40:03.467Z,11.70
2019-03-30T08:41:03.482Z,11.70
2019-03-30T08:42:03.494Z,12.00
2019-03-30T08:43:03.510Z,11.20
2019-03-30T08:44:03.518Z,11.30
2019-03-30T08:45:03.531Z,11.70
2019-03-30T08:46:03.551Z,11.70
2019-03-30T08:47:03.561Z,11.60
2019-03-30T08:48:03.582Z,11.80
2019-03-30T08:49:03.586Z,11.40
2019-03-30T08:50:03.602Z,12.20
2019-03-30T08:51:03.621Z,11.40
2019-03-30T08:52:03.629Z,11.40
2019-03-30T08:53:03.642Z,12.80
2019-03-30T08:54:03.653Z,11.60
2019-03-30T08:55:03.668Z,12.10
2019-03-30T08:56:03.675Z,12.20
2019-03-30T08:57:03.696Z,12.10
2019-03-30T08:58:03.703Z,12.30
2019-03-30T08:59:03.719Z,12.60
2019-03-30T09:00:03.739Z,11.90
2019-03-30T09:01:03.742Z,12.00
2019-03-30T09:02:03.757Z,12.00
2019-03-30T09:03:03.769Z,11.90
2019-03-30T09:04:03.781Z,11.60
2019-03-30T09:05:03.794Z,12.10
2019-03-30T09:06:03.811Z,11.40
2019-03-30T09:07:03.830Z,11.60
2019-03-30T09:08:03.833Z,11.20
2019-03-30T09:09:03.850Z,11.10
2019-03-30T09:10:03.865Z,11.00
2019-03-30T09:11:03.879Z,11.30
2019-03-30T09:12:03.898Z,11.60
2019-03-30T09:13:03.908Z,11.70
2019-03-30T09:14:03.917Z,11.70
2019-03-30T09:15:03.925Z,11.90
2019-03-30T09:16:03.949Z,11.80
2019-03-30T09:17:03.965Z,11.90
2019-03-30T09:18:03.972Z,12.00
2019-03-30T09:19:03.978Z,11.60
2019-03-30T09:20:03.993Z,11.40
2019-03-30T09:21:04.003Z,11.60
2019-03-30T09:22:04.024Z,11.50
2019-03-30T09:23:04.057Z,11.00
2019-03-30T09:24:09.904Z,12.00
2019-03-30T09:25:04.065Z,11.60
2019-03-30T09:26:04.078Z,11.80
2019-03-30T09:27:04.083Z,12.20
2019-03-30T09:28:04.110Z,11.80
2019-03-30T09:29:04.116Z,11.90
2019-03-30T09:30:04.123Z,11.70
2019-03-30T09:31:04.136Z,12.00
2019-03-30T09:32:14.203Z,11.50
2019-03-30T09:33:04.168Z,11.50
2019-03-30T09:34:04.185Z,11.70
2019-03-30T09:35:04.194Z,12.30
2019-03-30T09:36:04.205Z,11.90
2019-03-30T09:37:04.217Z,12.10
2019-03-30T09:38:04.231Z,11.70
2019-03-30T09:39:04.290Z,12.60
2019-03-30T09:40:04.259Z,11.50
2019-03-30T09:41:04.287Z,12.40
2019-03-30T09:42:04.287Z,12.30
2019-03-30T09:43:04.297Z,12.40
2019-03-30T09:44:04.313Z,12.30
2019-03-30T09:45:04.383Z,11.80
2019-03-30T09:46:04.348Z,11.50
2019-03-30T09:47:04.360Z,11.90
2019-03-30T09:48:04.372Z,11.20
2019-03-30T09:49:04.414Z,12.00
2019-03-30T09:50:04.411Z,11.40
2019-03-30T09:51:04.409Z,11.50
2019-03-30T09:52:04.433Z,11.10
2019-03-30T09:53:04.439Z,13.70
2019-03-30T09:54:04.449Z,11.70
2019-03-30T09:55:04.464Z,11.90
2019-03-30T09:56:04.478Z,11.00
2019-03-30T09:57:04.551Z,11.70
2019-03-30T09:58:04.511Z,11.20
2019-03-30T09:59:04.517Z,11.70
2019-03-30T10:00:04.537Z,10.90
2019-03-30T10:01:04.555Z,10.90
2019-03-30T10:02:04.563Z,11.60
2019-03-30T10:03:06.305Z,11.60
2019-03-30T10:04:04.587Z,11.90
2019-03-30T10:05:04.601Z,11.60
2019-03-30T10:06:04.713Z,12.80
2019-03-30T10:07:04.629Z,12.00
2019-03-30T10:08:04.650Z,11.80
2019-03-30T10:09:04.663Z,12.20
2019-03-30T10:10:04.680Z,12.10
2019-03-30T10:11:04.683Z,11.80
2019-03-30T10:12:04.703Z,11.60
2019-03-30T10:13:04.714Z,11.90
2019-03-30T10:14:04.729Z,12.00
2019-03-30T10:15:04.746Z,11.50
2019-03-30T10:16:04.751Z,11.20
2019-03-30T10:17:04.770Z,11.80
2019-03-30T10:18:04.783Z,11.50
2019-03-30T10:19:04.810Z,11.00
2019-03-30T10:20:05.365Z,11.30
2019-03-30T10:21:04.819Z,12.20
2019-03-30T10:22:04.840Z,13.00
2019-03-30T10:23:04.850Z,11.80
2019-03-30T10:24:04.867Z,12.00
2019-03-30T10:25:04.882Z,12.70
2019-03-30T10:26:04.895Z,11.40
2019-03-30T10:27:04.909Z,12.20
2019-03-30T10:28:04.918Z,12.20
2019-03-30T10:29:04.935Z,12.50
2019-03-30T10:30:04.948Z,12.30
2019-03-30T10:31:04.968Z,12.10
2019-03-30T10:32:04.985Z,11.80
2019-03-30T10:33:04.989Z,11.90
2019-03-30T10:34:05.003Z,11.40
2019-03-30T10:35:05.016Z,12.10
2019-03-30T10:36:05.032Z,11.80
2019-03-30T10:37:05.049Z,10.80
2019-03-30T10:38:05.061Z,11.20
2019-03-30T10:39:05.072Z,11.70
2019-03-30T10:40:05.089Z,11.40
2019-03-30T10:41:05.176Z,12.10
2019-03-30T10:42:05.116Z,11.50
2019-03-30T10:43:05.150Z,11.20
2019-03-30T10:44:05.143Z,11.40
2019-03-30T10:45:05.156Z,11.80
2019-03-30T10:46:05.174Z,11.50
2019-03-30T10:47:05.187Z,11.20
2019-03-30T10:48:05.246Z,11.80
2019-03-30T10:49:05.225Z,10.80
2019-03-30T10:50:05.226Z,11.20
2019-03-30T10:51:05.239Z,11.40
2019-03-30T10:52:05.277Z,11.60
2019-03-30T10:53:05.276Z,11.60
2019-03-30T10:54:05.290Z,11.60
2019-03-30T10:55:05.301Z,11.20
2019-03-30T10:56:05.323Z,10.80
2019-03-30T10:57:05.323Z,11.10
2019-03-30T10:58:05.346Z,11.10
2019-03-30T10:59:05.365Z,10.50
2019-03-30T11:00:05.374Z,10.10
2019-03-30T11:01:05.521Z,10.50
2019-03-30T11:02:05.418Z,11.00
2019-03-30T11:03:05.435Z,10.40
2019-03-30T11:04:05.423Z,10.50
2019-03-30T11:05:05.437Z,10.70
2019-03-30T11:06:05.456Z,10.00
2019-03-30T11:07:05.466Z,10.50
2019-03-30T11:08:05.514Z,10.10
2019-03-30T11:09:05.504Z,10.00
2019-03-30T11:10:05.511Z,11.30
2019-03-30T11:11:05.526Z,30.60
2019-03-30T11:12:05.544Z,15.50
2019-03-30T11:13:05.557Z,10.50
2019-03-30T11:14:05.567Z,11.00
2019-03-30T11:15:05.582Z,10.90
2019-03-30T11:16:05.647Z,10.70
2019-03-30T11:17:05.652Z,11.20
2019-03-30T11:18:05.632Z,11.40
2019-03-30T11:19:05.650Z,10.40
2019-03-30T11:20:05.657Z,11.10
2019-03-30T11:21:05.675Z,11.00
2019-03-30T11:22:05.684Z,10.60
2019-03-30T11:23:05.720Z,10.80
2019-03-30T11:24:06.857Z,10.70
2019-03-30T11:25:08.498Z,10.00
2019-03-30T11:26:05.794Z,10.20
2019-03-30T11:27:05.753Z,10.00
2019-03-30T11:28:05.766Z,10.50
2019-03-30T11:29:05.785Z,9.60
2019-03-30T11:30:05.793Z,9.50
2019-03-30T11:31:05.905Z,8.90
2019-03-30T11:32:05.833Z,9.40
2019-03-30T11:33:05.835Z,9.10
2019-03-30T11:34:05.853Z,9.00
2019-03-30T11:35:05.880Z,8.70
2019-03-30T11:36:05.884Z,8.10
2019-03-30T11:37:05.901Z,8.50
2019-03-30T11:38:05.916Z,8.00
2019-03-30T11:39:05.923Z,7.80
2019-03-30T11:40:05.942Z,8.00
2019-03-30T11:41:05.956Z,9.00
2019-03-30T11:42:05.973Z,8.60
2019-03-30T11:43:05.982Z,9.30
2019-03-30T11:44:06.002Z,8.30
2019-03-30T11:45:06.017Z,8.00
2019-03-30T11:46:06.023Z,8.50
2019-03-30T11:47:06.036Z,8.00
2019-03-30T11:48:06.059Z,8.30
2019-03-30T11:49:06.071Z,8.80
2019-03-30T11:50:06.090Z,8.90
2019-03-30T11:51:06.095Z,8.00
2019-03-30T11:52:06.118Z,8.40
2019-03-30T11:53:06.135Z,8.30
2019-03-30T11:54:06.143Z,7.70
2019-03-30T11:55:15.542Z,7.50
2019-03-30T11:56:06.172Z,7.60
2019-03-30T11:57:06.185Z,7.30
2019-03-30T11:58:06.200Z,7.70
2019-03-30T11:59:06.216Z,8.00
2019-03-30T12:00:06.242Z,8.70
2019-03-30T12:01:06.248Z,8.20
2019-03-30T12:02:06.269Z,8.90
2019-03-30T12:03:06.274Z,7.60
2019-03-30T12:04:06.292Z,8.80
2019-03-30T12:05:06.304Z,8.70
2019-03-30T12:06:06.323Z,8.60
2019-03-30T12:07:06.336Z,9.40
2019-03-30T12:08:06.349Z,9.50
2019-03-30T12:09:06.356Z,8.30
2019-03-30T12:10:06.388Z,7.60
2019-03-30T12:11:06.388Z,8.20
2019-03-30T12:12:06.409Z,8.50
2019-03-30T12:13:06.418Z,7.70
2019-03-30T12:14:06.431Z,8.30
2019-03-30T12:15:06.460Z,8.60
2019-03-30T12:16:06.457Z,8.40
2019-03-30T12:17:06.477Z,7.60
2019-03-30T12:18:06.492Z,8.10
2019-03-30T12:19:06.515Z,7.90
2019-03-30T12:21:06.577Z,7.20
2019-03-30T12:22:06.545Z,6.80
2019-03-30T12:23:06.569Z,6.50
2019-03-30T12:24:06.579Z,6.40
2019-03-30T12:25:06.602Z,7.10
2019-03-30T12:26:06.604Z,7.00
2019-03-30T12:27:06.615Z,7.20
2019-03-30T12:28:06.631Z,7.50
2019-03-30T12:29:06.657Z,7.70
2019-03-30T12:30:06.664Z,7.30
2019-03-30T12:31:06.679Z,7.90
2019-03-30T12:32:06.692Z,7.90
2019-03-30T12:33:06.704Z,8.00
2019-03-30T12:34:06.727Z,7.40
2019-03-30T12:35:06.741Z,8.00
2019-03-30T12:36:06.932Z,8.40
2019-03-30T12:37:06.767Z,8.40
2019-03-30T12:38:06.789Z,7.80
2019-03-30T12:39:06.811Z,8.40
2019-03-30T12:40:06.810Z,7.70
2019-03-30T12:41:06.843Z,8.10
2019-03-30T12:42:06.866Z,7.70
2019-03-30T12:43:06.849Z,7.70
2019-03-30T12:44:06.869Z,7.70
2019-03-30T12:45:06.911Z,7.70
2019-03-30T12:46:06.895Z,6.70
2019-03-30T12:47:10.152Z,7.40
2019-03-30T12:48:06.927Z,6.80
2019-03-30T12:49:06.940Z,7.00
2019-03-30T12:50:06.950Z,6.60
2019-03-30T12:51:06.974Z,7.20
2019-03-30T12:52:06.995Z,7.40
2019-03-30T12:53:06.996Z,7.10
2019-03-30T12:54:07.032Z,7.10
2019-03-30T12:55:07.032Z,7.20
2019-03-30T12:56:08.938Z,7.10
2019-03-30T12:57:07.051Z,7.50